Time;durP1;ratioP1;P1;durP2;ratioP2;P2;SDS_P1;SDS_P2;PMS_P1;PMS_P2;Temp;Humidity;BMP_temperature;BMP_pressure;BME280_temperature;BME280_humidity;BME280_pressure;Samples;Min_cycle;Max_cycle;Signal;HPM_P1;HPM_P2
2022/12/04 00:00:40;;;;;;;0.80;0.80;;;;;;;;;;6209071;23;20159;-75
2022/12/04 00:03:06;;;;;;;0.90;0.90;;;;;;;;;;6208886;22;20254;-75
2022/12/04 00:05:32;;;;;;;0.90;0.90;;;;;;;;;;6209562;23;20155;-76
2022/12/04 00:07:58;;;;;;;0.90;0.90;;;;;;;;;;6209013;23;20629;-75
2022/12/04 00:10:24;;;;;;;0.70;0.70;;;;;;;;;;6209061;23;20162;-76
2022/12/04 00:12:50;;;;;;;0.90;0.90;;;;;;;;;;6208671;22;20171;-75
2022/12/04 00:15:16;;;;;;;0.90;0.90;;;;;;;;;;6210856;23;20228;-75
2022/12/04 00:17:42;;;;;;;0.90;0.90;;;;;;;;;;6210847;23;20155;-75
2022/12/04 00:20:08;;;;;;;0.90;0.90;;;;;;;;;;6210893;23;20155;-76
2022/12/04 00:22:34;;;;;;;0.90;0.90;;;;;;;;;;6210326;22;20175;-76
2022/12/04 00:25:00;;;;;;;0.90;0.90;;;;;;;;;;6210506;23;20155;-75
2022/12/04 00:27:26;;;;;;;0.90;0.90;;;;;;;;;;6210374;23;20187;-75
2022/12/04 00:29:52;;;;;;;0.90;0.90;;;;;;;;;;6210791;23;20162;-76
2022/12/04 00:32:18;;;;;;;0.90;0.90;;;;;;;;;;6210162;22;20231;-75
2022/12/04 00:34:44;;;;;;;0.90;0.90;;;;;;;;;;6210152;23;20234;-76
2022/12/04 00:37:11;;;;;;;0.90;0.90;;;;;;;;;;6210482;23;20151;-76
2022/12/04 00:39:37;;;;;;;0.90;0.90;;;;;;;;;;6210468;23;20158;-76
2022/12/04 00:42:03;;;;;;;0.93;0.93;;;;;;;;;;6209433;23;20158;-76
2022/12/04 00:44:29;;;;;;;0.90;0.90;;;;;;;;;;6210174;22;20195;-76
2022/12/04 00:46:55;;;;;;;1.00;1.00;;;;;;;;;;6210438;23;20183;-76
2022/12/04 00:49:21;;;;;;;1.00;1.00;;;;;;;;;;6210169;23;20147;-76
2022/12/04 00:51:47;;;;;;;0.90;0.90;;;;;;;;;;6210296;23;20155;-75
2022/12/04 00:54:13;;;;;;;1.00;1.00;;;;;;;;;;6209608;22;20171;-75
2022/12/04 00:56:39;;;;;;;0.90;0.90;;;;;;;;;;6210204;23;20159;-75
2022/12/04 00:59:05;;;;;;;0.90;0.90;;;;;;;;;;6210565;23;20167;-76
2022/12/04 01:01:31;;;;;;;1.00;1.00;;;;;;;;;;6210443;23;20491;-76
2022/12/04 01:03:57;;;;;;;0.87;0.87;;;;;;;;;;6209701;22;20167;-76
2022/12/04 01:06:25;;;;;;;0.90;0.90;;;;;;;;;;6210382;23;20151;-75
2022/12/04 01:08:52;;;;;;;1.00;1.00;;;;;;;;;;6209724;23;20195;-75
2022/12/04 01:11:19;;;;;;;1.00;1.00;;;;;;;;;;6210214;23;20613;-75
2022/12/04 01:13:46;;;;;;;0.87;0.87;;;;;;;;;;6209420;22;20624;-76
2022/12/04 01:16:16;;;;;;;0.90;0.90;;;;;;;;;;6210221;23;20177;-76
2022/12/04 01:18:42;;;;;;;1.00;1.00;;;;;;;;;;6209981;23;20606;-76
2022/12/04 01:21:08;;;;;;;0.90;0.90;;;;;;;;;;6210142;23;20154;-75
2022/12/04 01:23:34;;;;;;;0.73;0.73;;;;;;;;;;6210274;22;20570;-76
2022/12/04 01:26:00;;;;;;;0.90;0.90;;;;;;;;;;6209290;23;20663;-76
2022/12/04 01:28:26;;;;;;;0.90;0.90;;;;;;;;;;6210236;23;20185;-76
2022/12/04 01:31:15;;;;;;;1.00;1.00;;;;;;;;;;6210151;23;20546;-76
2022/12/04 01:33:42;;;;;;;0.97;0.97;;;;;;;;;;6213077;22;20199;-75
2022/12/04 01:36:09;;;;;;;1.00;1.00;;;;;;;;;;6210154;23;20158;-75
2022/12/04 01:38:35;;;;;;;0.80;0.80;;;;;;;;;;6210397;23;20151;-75
2022/12/04 01:41:01;;;;;;;0.90;0.90;;;;;;;;;;6210119;23;20166;-75
2022/12/04 01:43:30;;;;;;;0.90;0.90;;;;;;;;;;6209122;22;20187;-76
2022/12/04 01:45:56;;;;;;;0.93;0.93;;;;;;;;;;6210243;23;20155;-76
2022/12/04 01:48:33;;;;;;;1.00;1.00;;;;;;;;;;6210177;23;20187;-75
2022/12/04 01:51:04;;;;;;;0.90;0.90;;;;;;;;;;6209764;23;20155;-76
2022/12/04 01:53:31;;;;;;;0.90;0.90;;;;;;;;;;6209242;22;20171;-75
2022/12/04 01:55:57;;;;;;;0.90;0.90;;;;;;;;;;6209881;23;20156;-75
2022/12/04 01:58:26;;;;;;;0.90;0.90;;;;;;;;;;6210079;23;20151;-75
2022/12/04 02:00:54;;;;;;;1.00;1.00;;;;;;;;;;6209699;23;20547;-75
2022/12/04 02:03:20;;;;;;;0.80;0.80;;;;;;;;;;6209023;22;20167;-76
2022/12/04 02:05:46;;;;;;;0.90;0.90;;;;;;;;;;6209966;23;20186;-76
2022/12/04 02:08:12;;;;;;;1.00;1.00;;;;;;;;;;6209803;23;20190;-75
2022/12/04 02:10:50;;;;;;;0.90;0.90;;;;;;;;;;6209990;23;20228;-76
2022/12/04 02:13:23;;;;;;;0.90;0.90;;;;;;;;;;6209342;22;20171;-75
2022/12/04 02:15:49;;;;;;;1.00;1.00;;;;;;;;;;6210346;23;20154;-76
2022/12/04 02:18:23;;;;;;;0.90;0.90;;;;;;;;;;6209980;23;20187;-75
2022/12/04 02:20:52;;;;;;;0.90;0.90;;;;;;;;;;6210039;23;20147;-76
2022/12/04 02:23:24;;;;;;;0.90;0.90;;;;;;;;;;6208972;22;20618;-75
2022/12/04 02:25:59;;;;;;;0.90;0.90;;;;;;;;;;6209900;23;20155;-75
2022/12/04 02:28:27;;;;;;;1.00;1.00;;;;;;;;;;6209913;23;20179;-76
2022/12/04 02:30:57;;;;;;;0.80;0.80;;;;;;;;;;6209984;23;20156;-76
2022/12/04 02:33:41;;;;;;;1.00;1.00;;;;;;;;;;6209526;22;20178;-76
2022/12/04 02:36:11;;;;;;;0.90;0.90;;;;;;;;;;6209488;23;20605;-76
2022/12/04 02:38:39;;;;;;;0.90;0.90;;;;;;;;;;6209737;23;20170;-76
2022/12/04 02:41:05;;;;;;;0.90;0.90;;;;;;;;;;6209682;23;20587;-75
2022/12/04 02:43:42;;;;;;;1.00;1.00;;;;;;;;;;6208964;22;20187;-76
2022/12/04 02:46:07;;;;;;;1.00;1.00;;;;;;;;;;6209939;23;20208;-76
2022/12/04 02:48:36;;;;;;;0.90;0.90;;;;;;;;;;6209674;23;20605;-75
2022/12/04 02:51:03;;;;;;;0.90;0.90;;;;;;;;;;6209792;23;20281;-76
2022/12/04 02:53:31;;;;;;;0.90;0.90;;;;;;;;;;6208605;22;20625;-75
2022/12/04 02:55:59;;;;;;;0.90;0.90;;;;;;;;;;6209432;23;20159;-75
2022/12/04 02:58:35;;;;;;;1.00;1.00;;;;;;;;;;6209378;23;20155;-76
2022/12/04 03:01:18;;;;;;;0.90;0.90;;;;;;;;;;6209714;23;20163;-75
2022/12/04 03:03:45;;;;;;;0.83;0.83;;;;;;;;;;6209206;22;20167;-76
2022/12/04 03:06:11;;;;;;;0.90;0.90;;;;;;;;;;6209726;23;20156;-75
2022/12/04 03:08:40;;;;;;;0.90;0.90;;;;;;;;;;6209635;23;20190;-76
2022/12/04 03:11:06;;;;;;;0.90;0.90;;;;;;;;;;6209269;23;20152;-76
2022/12/04 03:13:33;;;;;;;0.90;0.90;;;;;;;;;;6208925;22;20177;-75
2022/12/04 03:16:02;;;;;;;0.90;0.90;;;;;;;;;;6209932;23;20159;-75
2022/12/04 03:18:33;;;;;;;0.90;0.90;;;;;;;;;;6210026;23;20152;-75
2022/12/04 03:21:03;;;;;;;0.90;0.90;;;;;;;;;;6209857;23;20538;-75
2022/12/04 03:23:32;;;;;;;1.00;1.00;;;;;;;;;;6208909;22;20178;-75
2022/12/04 03:26:03;;;;;;;0.90;0.90;;;;;;;;;;6209648;23;20151;-75
2022/12/04 03:28:34;;;;;;;0.80;0.80;;;;;;;;;;6212518;23;20648;-74
2022/12/04 03:31:03;;;;;;;0.90;0.90;;;;;;;;;;6221461;23;20139;-74
2022/12/04 03:33:31;;;;;;;0.90;0.90;;;;;;;;;;6216825;22;20554;-76
2022/12/04 03:36:03;;;;;;;0.90;0.90;;;;;;;;;;6208915;23;20159;-76
2022/12/04 03:38:38;;;;;;;0.80;0.80;;;;;;;;;;6208856;23;20254;-74
2022/12/04 03:41:23;;;;;;;0.80;0.80;;;;;;;;;;6209395;23;20150;-74
2022/12/04 03:44:12;;;;;;;0.80;0.80;;;;;;;;;;6206693;22;20198;-78
2022/12/04 03:46:46;;;;;;;1.00;1.00;;;;;;;;;;6217627;23;20151;-81
2022/12/04 03:49:32;;;;;;;0.80;0.80;;;;;;;;;;6215808;23;20167;-80
2022/12/04 03:52:01;;;;;;;0.80;0.80;;;;;;;;;;6211968;23;20238;-80
2022/12/04 03:54:33;;;;;;;0.90;0.90;;;;;;;;;;6212272;22;20175;-79
2022/12/04 03:57:01;;;;;;;0.70;0.70;;;;;;;;;;6213480;23;20653;-78
2022/12/04 03:59:28;;;;;;;0.90;0.90;;;;;;;;;;6211988;23;20659;-77
2022/12/04 04:01:55;;;;;;;0.90;0.90;;;;;;;;;;6209834;23;20156;-80
2022/12/04 04:04:25;;;;;;;1.00;1.00;;;;;;;;;;6210290;22;20171;-79
2022/12/04 04:06:56;;;;;;;0.80;0.80;;;;;;;;;;6210268;23;20245;-76
2022/12/04 04:09:25;;;;;;;0.90;0.90;;;;;;;;;;6209698;23;20155;-77
2022/12/04 04:12:00;;;;;;;0.93;0.93;;;;;;;;;;6210168;23;20230;-77
2022/12/04 04:25:52;;;;;;;0.90;0.90;;;;;;;;;;6209614;23;20899;-78
2022/12/04 04:28:27;;;;;;;0.90;0.90;;;;;;;;;;6209932;23;20187;-78
2022/12/04 04:30:54;;;;;;;0.90;0.90;;;;;;;;;;6210045;23;20533;-78
2022/12/04 04:33:20;;;;;;;0.80;0.80;;;;;;;;;;6209698;22;20179;-77
2022/12/04 04:35:52;;;;;;;0.80;0.80;;;;;;;;;;6209833;23;20197;-77
2022/12/04 04:38:37;;;;;;;0.83;0.83;;;;;;;;;;6209663;23;20147;-79
2022/12/04 04:41:11;;;;;;;0.90;0.90;;;;;;;;;;6209329;23;20151;-77
2022/12/04 04:43:45;;;;;;;1.00;1.00;;;;;;;;;;6208763;22;20177;-79
2022/12/04 04:46:14;;;;;;;1.00;1.00;;;;;;;;;;6209764;23;20147;-79
2022/12/04 04:48:44;;;;;;;0.90;0.90;;;;;;;;;;6209338;23;20187;-77
2022/12/04 04:51:11;;;;;;;0.90;0.90;;;;;;;;;;6209459;23;20147;-78
2022/12/04 04:53:40;;;;;;;0.87;0.87;;;;;;;;;;6209389;22;20179;-78
2022/12/04 04:56:06;;;;;;;0.80;0.80;;;;;;;;;;6210649;23;20152;-79
2022/12/04 04:58:33;;;;;;;0.90;0.90;;;;;;;;;;6210363;23;20590;-78
2022/12/04 05:01:00;;;;;;;1.00;1.00;;;;;;;;;;6210823;23;20163;-80
2022/12/04 05:03:27;;;;;;;0.87;0.87;;;;;;;;;;6211401;22;20457;-80
2022/12/04 05:05:53;;;;;;;0.90;0.90;;;;;;;;;;6211958;23;20159;-79
2022/12/04 05:08:19;;;;;;;0.90;0.90;;;;;;;;;;6210462;23;20183;-79
2022/12/04 05:10:45;;;;;;;0.90;0.90;;;;;;;;;;6212760;23;20151;-80
2022/12/04 05:13:12;;;;;;;0.87;0.87;;;;;;;;;;6212776;22;20482;-80
2022/12/04 05:15:38;;;;;;;1.00;1.00;;;;;;;;;;6213803;23;20151;-80
2022/12/04 05:18:04;;;;;;;0.90;0.90;;;;;;;;;;6213584;23;20155;-80
2022/12/04 05:20:30;;;;;;;0.90;0.90;;;;;;;;;;6211833;23;20158;-79
2022/12/04 05:22:56;;;;;;;0.97;0.97;;;;;;;;;;6219584;22;20179;-80
2022/12/04 05:25:22;;;;;;;0.90;0.90;;;;;;;;;;6228871;23;20155;-80
2022/12/04 05:27:48;;;;;;;0.80;0.80;;;;;;;;;;6222950;23;20621;-79
2022/12/04 05:30:14;;;;;;;1.00;1.00;;;;;;;;;;6212653;23;20226;-81
2022/12/04 05:32:40;;;;;;;0.90;0.90;;;;;;;;;;6210123;22;20175;-78
2022/12/04 05:35:06;;;;;;;0.93;0.93;;;;;;;;;;6211061;23;20674;-79
2022/12/04 05:37:36;;;;;;;0.90;0.90;;;;;;;;;;6210938;23;20163;-78
2022/12/04 05:40:02;;;;;;;0.97;0.97;;;;;;;;;;6211155;23;20158;-77
2022/12/04 05:42:28;;;;;;;0.90;0.90;;;;;;;;;;6209849;22;20186;-78
2022/12/04 05:44:54;;;;;;;0.90;0.90;;;;;;;;;;6210408;23;20562;-79
2022/12/04 05:47:19;;;;;;;0.90;0.90;;;;;;;;;;6210480;23;20198;-78
2022/12/04 05:49:46;;;;;;;0.90;0.90;;;;;;;;;;6211999;23;20152;-79
2022/12/04 05:52:12;;;;;;;1.00;1.00;;;;;;;;;;6213782;22;20211;-79
2022/12/04 05:54:38;;;;;;;0.80;0.80;;;;;;;;;;6214588;23;20215;-78
2022/12/04 05:57:04;;;;;;;1.00;1.00;;;;;;;;;;6216176;23;20157;-80
2022/12/04 05:59:30;;;;;;;1.00;1.00;;;;;;;;;;6216806;23;20207;-79
2022/12/04 06:01:56;;;;;;;0.97;0.97;;;;;;;;;;6216966;23;20152;-81
2022/12/04 06:04:22;;;;;;;1.00;1.00;;;;;;;;;;6216045;22;20171;-79
2022/12/04 06:06:48;;;;;;;0.90;0.90;;;;;;;;;;6214462;23;20159;-79
2022/12/04 06:09:14;;;;;;;0.90;0.90;;;;;;;;;;6214374;23;20148;-79
2022/12/04 06:11:40;;;;;;;0.90;0.90;;;;;;;;;;6214719;23;20174;-80
2022/12/04 06:14:08;;;;;;;0.90;0.90;;;;;;;;;;6213084;22;20202;-79
2022/12/04 06:16:36;;;;;;;1.00;1.00;;;;;;;;;;6212065;23;20155;-80
2022/12/04 06:19:04;;;;;;;0.90;0.90;;;;;;;;;;6213375;23;20227;-79
2022/12/04 06:21:34;;;;;;;0.80;0.80;;;;;;;;;;6213590;23;20160;-80
2022/12/04 06:24:00;;;;;;;0.90;0.90;;;;;;;;;;6213312;22;20228;-78
2022/12/04 06:26:26;;;;;;;0.90;0.90;;;;;;;;;;6214131;23;20151;-78
2022/12/04 06:28:53;;;;;;;0.80;0.80;;;;;;;;;;6213919;23;20255;-78
2022/12/04 06:31:19;;;;;;;0.80;0.80;;;;;;;;;;6214893;23;20242;-79
2022/12/04 06:33:46;;;;;;;0.80;0.80;;;;;;;;;;6214196;22;20500;-79
2022/12/04 06:36:14;;;;;;;0.80;0.80;;;;;;;;;;6215226;23;20151;-78
2022/12/04 06:38:40;;;;;;;0.90;0.90;;;;;;;;;;6214749;23;20233;-81
2022/12/04 06:41:06;;;;;;;0.80;0.80;;;;;;;;;;6214353;23;20723;-79
2022/12/04 06:43:33;;;;;;;0.93;0.93;;;;;;;;;;6211579;22;20578;-80
2022/12/04 06:46:03;;;;;;;0.90;0.90;;;;;;;;;;6213464;23;20489;-79
2022/12/04 06:48:30;;;;;;;0.90;0.90;;;;;;;;;;6212226;23;20271;-79
2022/12/04 06:51:03;;;;;;;0.93;0.93;;;;;;;;;;6213379;23;20226;-80
2022/12/04 06:53:29;;;;;;;0.80;0.80;;;;;;;;;;6215164;22;20187;-79
2022/12/04 06:55:59;;;;;;;0.90;0.90;;;;;;;;;;6216983;23;20194;-80
2022/12/04 06:58:26;;;;;;;0.97;0.97;;;;;;;;;;6212935;23;20147;-79
2022/12/04 07:00:52;;;;;;;0.83;0.83;;;;;;;;;;6212452;23;20491;-78
2022/12/04 07:03:19;;;;;;;0.90;0.90;;;;;;;;;;6211481;22;20171;-78
2022/12/04 07:05:45;;;;;;;0.90;0.90;;;;;;;;;;6216580;23;20509;-79
2022/12/04 07:08:11;;;;;;;0.90;0.90;;;;;;;;;;6219208;23;20223;-80
2022/12/04 07:10:37;;;;;;;0.80;0.80;;;;;;;;;;6217978;23;20215;-79
2022/12/04 07:13:06;;;;;;;0.80;0.80;;;;;;;;;;6214733;22;20175;-80
2022/12/04 07:15:33;;;;;;;0.90;0.90;;;;;;;;;;6213498;23;20174;-79
2022/12/04 07:17:59;;;;;;;0.97;0.97;;;;;;;;;;6216001;23;20151;-80
2022/12/04 07:20:25;;;;;;;0.80;0.80;;;;;;;;;;6223749;23;20144;-79
2022/12/04 07:22:51;;;;;;;0.90;0.90;;;;;;;;;;6217053;22;20179;-81
2022/12/04 07:25:17;;;;;;;0.70;0.70;;;;;;;;;;6215490;23;20157;-80
2022/12/04 07:27:44;;;;;;;0.80;0.80;;;;;;;;;;6214190;23;20191;-80
2022/12/04 07:30:10;;;;;;;0.80;0.80;;;;;;;;;;6213517;23;20162;-78
2022/12/04 07:32:36;;;;;;;0.90;0.90;;;;;;;;;;6213229;22;20182;-79
2022/12/04 07:35:03;;;;;;;0.80;0.80;;;;;;;;;;6213794;23;20207;-80
2022/12/04 07:37:29;;;;;;;0.80;0.80;;;;;;;;;;6212928;23;20521;-79
2022/12/04 07:39:55;;;;;;;0.80;0.80;;;;;;;;;;6213246;23;20649;-79
2022/12/04 07:42:21;;;;;;;0.80;0.80;;;;;;;;;;6213342;22;20155;-80
2022/12/04 07:44:47;;;;;;;0.90;0.90;;;;;;;;;;6213591;23;20217;-77
2022/12/04 07:47:13;;;;;;;0.70;0.70;;;;;;;;;;6210142;23;20262;-79
2022/12/04 07:49:39;;;;;;;0.80;0.80;;;;;;;;;;6211326;23;20827;-77
2022/12/04 07:52:05;;;;;;;0.80;0.80;;;;;;;;;;6210968;23;20195;-79
2022/12/04 07:54:31;;;;;;;0.87;0.87;;;;;;;;;;6210665;22;20524;-79
2022/12/04 07:56:57;;;;;;;0.73;0.73;;;;;;;;;;6211315;23;20608;-77
2022/12/04 07:59:23;;;;;;;0.80;0.80;;;;;;;;;;6211080;23;20166;-79
2022/12/04 08:01:49;;;;;;;1.00;1.00;;;;;;;;;;6211226;23;20151;-77
2022/12/04 08:04:15;;;;;;;0.80;0.80;;;;;;;;;;6210455;22;20568;-78
2022/12/04 08:06:41;;;;;;;0.80;0.80;;;;;;;;;;6211760;23;20155;-78
2022/12/04 08:09:07;;;;;;;0.80;0.80;;;;;;;;;;6211202;23;20151;-78
2022/12/04 08:11:34;;;;;;;0.80;0.80;;;;;;;;;;6211370;23;20162;-79
2022/12/04 08:14:01;;;;;;;0.83;0.83;;;;;;;;;;6210880;22;20174;-79
2022/12/04 08:16:28;;;;;;;0.80;0.80;;;;;;;;;;6213602;23;20155;-78
2022/12/04 08:18:54;;;;;;;0.90;0.90;;;;;;;;;;6213184;23;20151;-77
2022/12/04 08:21:21;;;;;;;0.90;0.90;;;;;;;;;;6212381;23;20652;-80
2022/12/04 08:23:49;;;;;;;0.80;0.80;;;;;;;;;;6216528;22;20171;-78
2022/12/04 08:26:14;;;;;;;0.83;0.83;;;;;;;;;;6229326;23;20234;-79
2022/12/04 08:28:41;;;;;;;0.80;0.80;;;;;;;;;;6229906;23;20187;-80
2022/12/04 08:31:17;;;;;;;0.70;0.70;;;;;;;;;;6235978;23;20163;-80
2022/12/04 08:33:44;;;;;;;0.77;0.77;;;;;;;;;;6219843;22;20185;-80
2022/12/04 08:36:11;;;;;;;0.83;0.83;;;;;;;;;;6219927;23;20276;-79
2022/12/04 08:38:37;;;;;;;0.80;0.80;;;;;;;;;;6219538;23;20162;-79
2022/12/04 08:41:04;;;;;;;0.80;0.80;;;;;;;;;;6217612;23;20750;-78
2022/12/04 08:43:30;;;;;;;0.80;0.80;;;;;;;;;;6214512;22;20212;-79
2022/12/04 08:46:04;;;;;;;0.70;0.70;;;;;;;;;;6215333;23;20566;-78
2022/12/04 08:48:30;;;;;;;0.80;0.80;;;;;;;;;;6212559;23;20198;-78
2022/12/04 08:50:56;;;;;;;0.80;0.80;;;;;;;;;;6213095;23;20593;-78
2022/12/04 08:53:23;;;;;;;0.70;0.70;;;;;;;;;;6212041;22;20190;-77
2022/12/04 08:55:49;;;;;;;0.80;0.80;;;;;;;;;;6211302;23;20144;-76
2022/12/04 08:58:15;;;;;;;0.73;0.73;;;;;;;;;;6211643;23;20165;-78
2022/12/04 09:00:41;;;;;;;0.70;0.70;;;;;;;;;;6211581;23;20147;-79
2022/12/04 09:03:08;;;;;;;0.90;0.90;;;;;;;;;;6210513;22;20179;-79
2022/12/04 09:05:34;;;;;;;0.73;0.73;;;;;;;;;;6210980;23;20154;-77
2022/12/04 09:08:00;;;;;;;0.80;0.80;;;;;;;;;;6211156;23;20195;-79
2022/12/04 09:10:26;;;;;;;0.80;0.80;;;;;;;;;;6212543;23;20175;-77
2022/12/04 09:12:52;;;;;;;0.80;0.80;;;;;;;;;;6211080;22;20175;-77
2022/12/04 09:15:18;;;;;;;0.73;0.73;;;;;;;;;;6211908;23;20578;-78
2022/12/04 09:17:44;;;;;;;0.80;0.80;;;;;;;;;;6211039;23;20155;-76
2022/12/04 09:20:10;;;;;;;0.80;0.80;;;;;;;;;;6211336;23;20256;-79
2022/12/04 09:22:37;;;;;;;0.70;0.70;;;;;;;;;;6209602;22;20484;-78
2022/12/04 09:25:04;;;;;;;0.97;0.97;;;;;;;;;;6210539;23;20163;-76
2022/12/04 09:27:30;;;;;;;0.80;0.80;;;;;;;;;;6210473;23;20191;-76
2022/12/04 09:29:56;;;;;;;0.90;0.90;;;;;;;;;;6209914;23;20151;-76
2022/12/04 09:32:22;;;;;;;0.90;0.90;;;;;;;;;;6209648;22;20161;-76
2022/12/04 09:34:48;;;;;;;0.90;0.90;;;;;;;;;;6212996;23;20449;-80
2022/12/04 09:37:16;;;;;;;0.90;0.90;;;;;;;;;;6212617;23;20236;-78
2022/12/04 09:39:42;;;;;;;0.90;0.90;;;;;;;;;;6209442;23;20144;-78
2022/12/04 09:42:15;;;;;;;0.90;0.90;;;;;;;;;;6209305;23;20155;-77
2022/12/04 09:44:45;;;;;;;0.87;0.87;;;;;;;;;;6209995;23;20632;-77
2022/12/04 09:47:31;;;;;;;0.80;0.80;;;;;;;;;;6210001;23;20191;-76
2022/12/04 09:50:05;;;;;;;0.90;0.90;;;;;;;;;;6209961;23;20196;-75
2022/12/04 09:52:46;;;;;;;0.70;0.70;;;;;;;;;;6210086;22;20201;-74
2022/12/04 09:55:15;;;;;;;0.80;0.80;;;;;;;;;;6222587;23;20152;-79
2022/12/04 09:57:43;;;;;;;0.80;0.80;;;;;;;;;;6214873;23;20167;-79
2022/12/04 10:00:13;;;;;;;0.80;0.80;;;;;;;;;;6211515;23;20537;-79
2022/12/04 10:02:40;;;;;;;0.70;0.70;;;;;;;;;;6213139;22;20178;-78
2022/12/04 10:05:11;;;;;;;0.70;0.70;;;;;;;;;;6212525;23;20235;-79
2022/12/04 10:07:44;;;;;;;0.80;0.80;;;;;;;;;;6212758;23;20183;-78
2022/12/04 10:10:10;;;;;;;0.80;0.80;;;;;;;;;;6215249;23;20150;-79
2022/12/04 10:12:56;;;;;;;0.70;0.70;;;;;;;;;;6215697;22;20179;-79
2022/12/04 10:15:29;;;;;;;0.80;0.80;;;;;;;;;;6212840;23;20152;-78
2022/12/04 10:18:13;;;;;;;0.80;0.80;;;;;;;;;;6215547;23;20234;-79
2022/12/04 10:20:46;;;;;;;0.73;0.73;;;;;;;;;;6219863;23;20148;-79
2022/12/04 10:23:12;;;;;;;0.70;0.70;;;;;;;;;;6213414;22;20231;-78
2022/12/04 10:25:39;;;;;;;0.80;0.80;;;;;;;;;;6213979;23;20181;-80
2022/12/04 10:28:21;;;;;;;0.80;0.80;;;;;;;;;;6212911;23;20183;-79
2022/12/04 10:30:48;;;;;;;0.80;0.80;;;;;;;;;;6213467;23;20624;-77
2022/12/04 10:33:19;;;;;;;0.83;0.83;;;;;;;;;;6211529;22;20167;-79
2022/12/04 10:35:49;;;;;;;0.80;0.80;;;;;;;;;;6212464;23;20159;-78
2022/12/04 10:38:25;;;;;;;0.80;0.80;;;;;;;;;;6211659;23;20534;-79
2022/12/04 10:40:55;;;;;;;0.80;0.80;;;;;;;;;;6210661;23;20285;-78
2022/12/04 10:43:30;;;;;;;0.80;0.80;;;;;;;;;;6210580;22;20179;-78
2022/12/04 10:45:57;;;;;;;0.90;0.90;;;;;;;;;;6212339;23;20143;-77
2022/12/04 10:48:30;;;;;;;0.80;0.80;;;;;;;;;;6212221;23;20194;-79
2022/12/04 10:50:56;;;;;;;0.80;0.80;;;;;;;;;;6211734;23;20148;-78
2022/12/04 10:53:27;;;;;;;0.80;0.80;;;;;;;;;;6211696;22;20198;-77
2022/12/04 10:55:53;;;;;;;0.70;0.70;;;;;;;;;;6213592;23;20143;-78
2022/12/04 10:58:19;;;;;;;0.87;0.87;;;;;;;;;;6211731;23;20254;-79
2022/12/04 11:00:56;;;;;;;0.80;0.80;;;;;;;;;;6214708;23;20147;-79
2022/12/04 11:03:24;;;;;;;0.80;0.80;;;;;;;;;;6213223;22;20175;-76
2022/12/04 11:05:55;;;;;;;0.80;0.80;;;;;;;;;;6216415;23;20147;-79
2022/12/04 11:08:25;;;;;;;0.80;0.80;;;;;;;;;;6216675;23;21022;-78
2022/12/04 11:10:57;;;;;;;0.80;0.80;;;;;;;;;;6218016;23;20143;-78
2022/12/04 11:13:24;;;;;;;0.80;0.80;;;;;;;;;;6215604;22;20179;-80
2022/12/04 11:15:51;;;;;;;0.80;0.80;;;;;;;;;;6213037;22;20230;-78
2022/12/04 11:18:17;;;;;;;0.77;0.77;;;;;;;;;;6211365;23;20161;-79
2022/12/04 11:21:09;;;;;;;0.80;0.80;;;;;;;;;;6212685;23;20178;-78
2022/12/04 11:23:43;;;;;;;0.80;0.80;;;;;;;;;;6221191;22;20182;-78
2022/12/04 11:26:09;;;;;;;0.80;0.80;;;;;;;;;;6212114;23;20155;-78
2022/12/04 11:28:36;;;;;;;0.87;0.87;;;;;;;;;;6209546;23;20187;-81
2022/12/04 11:31:03;;;;;;;0.80;0.80;;;;;;;;;;6211081;23;20156;-76
2022/12/04 11:33:33;;;;;;;0.87;0.87;;;;;;;;;;6205727;22;20179;-76
2022/12/04 11:36:01;;;;;;;0.80;0.80;;;;;;;;;;6209670;23;20155;-75
2022/12/04 11:38:28;;;;;;;0.80;0.80;;;;;;;;;;6210989;23;20540;-77
2022/12/04 11:40:56;;;;;;;0.80;0.80;;;;;;;;;;6209806;23;20151;-76
2022/12/04 11:43:24;;;;;;;0.80;0.80;;;;;;;;;;6210954;22;20217;-77
2022/12/04 11:45:54;;;;;;;0.80;0.80;;;;;;;;;;6210527;23;20154;-77
2022/12/04 11:48:21;;;;;;;0.80;0.80;;;;;;;;;;6208651;23;20477;-78
2022/12/04 11:50:50;;;;;;;0.80;0.80;;;;;;;;;;6209535;23;20151;-77
2022/12/04 11:53:22;;;;;;;0.70;0.70;;;;;;;;;;6208599;22;20171;-76
2022/12/04 11:56:07;;;;;;;0.90;0.90;;;;;;;;;;6209298;23;20147;-77
2022/12/04 11:58:32;;;;;;;0.80;0.80;;;;;;;;;;6208897;23;20152;-77
2022/12/04 12:01:08;;;;;;;0.87;0.87;;;;;;;;;;6209159;23;20151;-76
2022/12/04 12:03:37;;;;;;;0.70;0.70;;;;;;;;;;6207954;22;20231;-77
2022/12/04 12:06:29;;;;;;;0.90;0.90;;;;;;;;;;6208905;23;20184;-77
2022/12/04 12:09:13;;;;;;;0.90;0.90;;;;;;;;;;6209079;23;20269;-77
2022/12/04 12:11:47;;;;;;;0.80;0.80;;;;;;;;;;6210455;23;20151;-77
2022/12/04 12:14:16;;;;;;;0.70;0.70;;;;;;;;;;6209555;22;20175;-77
2022/12/04 12:16:56;;;;;;;0.70;0.70;;;;;;;;;;6209667;23;20177;-77
2022/12/04 12:19:22;;;;;;;0.80;0.80;;;;;;;;;;6211324;23;20143;-77
2022/12/04 12:21:54;;;;;;;0.80;0.80;;;;;;;;;;6211970;23;20175;-77
2022/12/04 12:24:20;;;;;;;0.80;0.80;;;;;;;;;;6210799;22;20198;-77
2022/12/04 12:26:55;;;;;;;0.77;0.77;;;;;;;;;;6210511;23;20210;-77
2022/12/04 12:29:40;;;;;;;0.73;0.73;;;;;;;;;;6210128;23;20167;-77
2022/12/04 12:32:06;;;;;;;0.80;0.80;;;;;;;;;;6210079;23;20155;-76
2022/12/04 12:34:36;;;;;;;0.80;0.80;;;;;;;;;;6211125;22;20179;-76
2022/12/04 12:37:21;;;;;;;0.80;0.80;;;;;;;;;;6211754;23;20193;-77
2022/12/04 12:39:47;;;;;;;0.90;0.90;;;;;;;;;;6211495;23;20140;-77
2022/12/04 12:42:17;;;;;;;0.77;0.77;;;;;;;;;;6210981;22;20170;-77
2022/12/04 12:44:48;;;;;;;0.70;0.70;;;;;;;;;;6210466;23;20481;-76
2022/12/04 12:47:19;;;;;;;0.70;0.70;;;;;;;;;;6209970;23;20429;-76
2022/12/04 12:49:48;;;;;;;0.80;0.80;;;;;;;;;;6210701;23;20386;-77
2022/12/04 12:52:33;;;;;;;0.80;0.80;;;;;;;;;;6211917;22;20186;-77
2022/12/04 12:55:02;;;;;;;0.67;0.67;;;;;;;;;;6210760;23;20211;-76
2022/12/04 12:57:36;;;;;;;0.80;0.80;;;;;;;;;;6210703;23;20161;-76
2022/12/04 13:00:13;;;;;;;0.80;0.80;;;;;;;;;;6210599;23;20162;-76
2022/12/04 13:02:44;;;;;;;0.80;0.80;;;;;;;;;;6208990;22;20230;-75
2022/12/04 13:05:12;;;;;;;0.70;0.70;;;;;;;;;;6210060;23;20171;-76
2022/12/04 13:07:47;;;;;;;0.87;0.87;;;;;;;;;;6210018;23;20175;-76
2022/12/04 13:10:16;;;;;;;0.80;0.80;;;;;;;;;;6210411;23;20151;-76
2022/12/04 13:13:01;;;;;;;0.80;0.80;;;;;;;;;;6210579;22;20175;-76
2022/12/04 13:15:38;;;;;;;0.73;0.73;;;;;;;;;;6212154;23;20218;-77
2022/12/04 13:18:06;;;;;;;0.80;0.80;;;;;;;;;;6210321;23;20143;-75
2022/12/04 13:20:37;;;;;;;0.90;0.90;;;;;;;;;;6209963;23;20238;-76
2022/12/04 13:23:13;;;;;;;0.80;0.80;;;;;;;;;;6209279;22;20167;-76
2022/12/04 13:26:08;;;;;;;0.70;0.70;;;;;;;;;;6210073;23;20147;-77
2022/12/04 13:28:43;;;;;;;0.70;0.70;;;;;;;;;;6215886;23;20190;-76
2022/12/04 13:31:35;;;;;;;0.70;0.70;;;;;;;;;;6209520;23;20196;-75
2022/12/04 13:34:07;;;;;;;0.80;0.80;;;;;;;;;;6220674;23;20175;-76
2022/12/04 13:36:39;;;;;;;0.80;0.80;;;;;;;;;;6209394;23;20682;-76
2022/12/04 13:39:24;;;;;;;0.83;0.83;;;;;;;;;;6210279;23;20251;-76
2022/12/04 13:42:00;;;;;;;0.80;0.80;;;;;;;;;;6209985;23;20159;-76
2022/12/04 13:44:26;;;;;;;0.70;0.70;;;;;;;;;;6210080;22;20525;-76
2022/12/04 13:46:57;;;;;;;0.80;0.80;;;;;;;;;;6208040;23;20175;-76
2022/12/04 13:49:25;;;;;;;0.80;0.80;;;;;;;;;;6210042;23;20174;-76
2022/12/04 13:51:52;;;;;;;0.70;0.70;;;;;;;;;;6209813;23;20636;-75
2022/12/04 13:54:23;;;;;;;0.80;0.80;;;;;;;;;;6208905;22;20585;-76
2022/12/04 13:56:51;;;;;;;0.80;0.80;;;;;;;;;;6209888;23;20188;-76
2022/12/04 13:59:26;;;;;;;0.80;0.80;;;;;;;;;;6209733;23;20144;-76
2022/12/04 14:01:54;;;;;;;0.70;0.70;;;;;;;;;;6209890;23;20154;-76
2022/12/04 14:04:23;;;;;;;0.80;0.80;;;;;;;;;;6209247;22;20636;-76
2022/12/04 14:06:50;;;;;;;0.70;0.70;;;;;;;;;;6209937;23;20177;-76
2022/12/04 14:09:26;;;;;;;0.70;0.70;;;;;;;;;;6209867;23;20274;-76
2022/12/04 14:11:53;;;;;;;0.70;0.70;;;;;;;;;;6209744;23;20153;-76
2022/12/04 14:14:22;;;;;;;0.73;0.73;;;;;;;;;;6209178;22;20531;-75
2022/12/04 14:16:48;;;;;;;0.70;0.70;;;;;;;;;;6209278;23;20253;-75
2022/12/04 14:19:26;;;;;;;0.80;0.80;;;;;;;;;;6209687;23;20154;-75
2022/12/04 14:21:53;;;;;;;0.70;0.70;;;;;;;;;;6209813;23;20558;-75
2022/12/04 14:24:29;;;;;;;0.90;0.90;;;;;;;;;;6208712;22;20171;-75
2022/12/04 14:26:56;;;;;;;0.73;0.73;;;;;;;;;;6207454;23;20166;-75
2022/12/04 14:29:28;;;;;;;0.73;0.73;;;;;;;;;;6208767;23;20465;-75
2022/12/04 14:31:55;;;;;;;0.80;0.80;;;;;;;;;;6208961;23;20179;-77
2022/12/04 14:34:31;;;;;;;0.90;0.90;;;;;;;;;;6208710;22;20171;-74
2022/12/04 14:36:57;;;;;;;0.77;0.77;;;;;;;;;;6208744;23;20154;-75
2022/12/04 14:39:23;;;;;;;0.80;0.80;;;;;;;;;;6209121;23;20247;-75
2022/12/04 14:41:49;;;;;;;0.80;0.80;;;;;;;;;;6209247;23;20266;-75
2022/12/04 14:44:28;;;;;;;0.80;0.80;;;;;;;;;;6208576;22;20175;-75
2022/12/04 14:47:00;;;;;;;0.90;0.90;;;;;;;;;;6208792;23;20151;-74
2022/12/04 14:49:35;;;;;;;0.90;0.90;;;;;;;;;;6208821;23;20559;-74
2022/12/04 14:52:23;;;;;;;0.70;0.70;;;;;;;;;;6207251;23;20492;-75
2022/12/04 14:54:49;;;;;;;0.80;0.80;;;;;;;;;;6209198;23;20281;-74
2022/12/04 14:57:18;;;;;;;0.90;0.90;;;;;;;;;;6208994;23;20189;-75
2022/12/04 14:59:45;;;;;;;0.70;0.70;;;;;;;;;;6208760;23;20468;-74
2022/12/04 15:02:13;;;;;;;0.80;0.80;;;;;;;;;;6208493;22;20660;-75
2022/12/04 15:04:44;;;;;;;0.80;0.80;;;;;;;;;;6209225;23;20155;-76
2022/12/04 15:07:11;;;;;;;0.70;0.70;;;;;;;;;;6208909;23;20574;-75